Aviation Digital Data Service (ADDS)

Output produced by METARs form (0230 UTC 12 December 2018)
found at http://www.aviationweather.gov/metar/data/
 
LECO 120200Z AUTO 17005KT 0250 0150SW R21/0700N R03/0400D FG VV001 05/05 Q1023
TAF LECO 120200Z 1203/1303 18007KT 8000 SCT014 TX14/1215Z TN04/1206Z 
     TEMPO 1203/1209 1500 BCFG 
     TEMPO 1203/1208 0600 FG BKN002 
     PROB30 
     TEMPO 1203/1208 0150 FG VV001 
     TEMPO 1212/1303 21015G27KT 
     TEMPO 1218/1303 RA 
     TEMPO 1224/1303 27018G35KT 3000 SHRA BKN010 SCT025TCU
       
LEAB 120200Z VRB01KT 9000 NSC 02/02 Q1022 NOSIG
TAF LEAB 120200Z 1203/1212 33009KT CAVOK 
     PROB30 
     TEMPO 1205/1210 3000 BR BKN008
       
TAF LERI 120200Z 1203/1212 24005KT CAVOK
       
LEAL 120200Z 29009KT 260V320 CAVOK 14/05 Q1019 NOSIG
TAF LEAL 112300Z 1200/1224 30008KT 9999 FEW025 TX21/1212Z TN08/1206Z 
     BECMG 1210/1212 VRB04KT 
     BECMG 1219/1222 30010KT
       
LEAM 120200Z AUTO 34005KT 9999 ////// 10/09 Q1021
TAF LEAM 120200Z 1203/1303 35004KT 9999 FEW030 TX18/1214Z TN08/1207Z
       
LEAS 120200Z AUTO 28007KT 9999 FEW016/// BKN035/// 12/09 Q1023
TAF LEAS 120200Z 1203/1303 26009KT 9999 SCT030 SCT050 TX14/1215Z TN08/1206Z 
     TEMPO 1212/1218 10010KT 
     PROB40 
     TEMPO 1221/1303 RA 
     BECMG 1300/1303 26015G27KT
       
LEMD 120200Z 34003KT 9000 NSC 02/02 Q1022 NOSIG
TAF LEMD 112300Z 1200/1306 VRB04KT CAVOK TX10/1215Z TN01/1205Z 
     PROB40 
     TEMPO 1203/1212 3000 BR OVC009 
     PROB30 
     TEMPO 1206/1210 0500 FG BKN004 
     PROB40 
     TEMPO 1212/1306 22006G16KT 
     PROB30 
     TEMPO 1218/1306 3000 DZ BR BKN008
       
LEBL 120200Z 33009KT 9000 FEW035 07/05 Q1019 NOSIG
TAF LEBL 112300Z 1200/1224 34007KT 9999 FEW025 TX15/1212Z TN07/1206Z 
     TEMPO 1202/1210 34010G22KT 
     TEMPO 1212/1219 VRB04KT
       
LEBB 120200Z AUTO 00000KT 9999 BKN025/// BKN032/// 09/08 Q1022
TAF LEBB 112300Z 1200/1224 26007KT 9999 SCT025 BKN040 TX14/1214Z TN09/1206Z 
     PROB40 
     TEMPO 1200/1207 3000 RADZ BKN010 
     BECMG 1218/1221 20010KT 
     TEMPO 1221/1224 20015G30KT
       
LEBG 120200Z AUTO VRB01KT 9999 NCD M00/M01 Q1022
TAF LEBG 120200Z 1203/1212 VRB04KT CAVOK 
     PROB30 
     TEMPO 1206/1210 3000 BR BKN006
       
LEBA 120200Z AUTO 08002KT 6000 SCT020/// 07/07 Q1023
TAF LEBA 120200Z 1203/1212 VRB02KT 9999 SCT030 
     PROB30 
     TEMPO 1203/1209 3000 BR BKN012
       
TAF LEVS 111700Z 1118/1203 23005KT CAVOK
       
GCFV 120200Z AUTO 03014KT 9999 OVC034/// 20/14 Q1024
TAF GCFV 120200Z 1203/1303 02011KT 9999 BKN035 TX21/1213Z TN16/1206Z
       
TAF LEGT 120200Z 1203/1212 VRB04KT CAVOK 
     PROB40 
     TEMPO 1204/1212 3000 BR BKN008 
     PROB30 
     TEMPO 1205/1209 0300 FG OVC003
       
LEGE 120200Z 00000KT 6000 FEW018 04/04 Q1020
TAF LEGE 112300Z 1200/1224 VRB04KT 9999 FEW030 TX15/1213Z TN02/1206Z 
     PROB40 
     TEMPO 1200/1209 2000 BR SCT008 
     BECMG 1210/1212 17008KT 
     BECMG 1218/1220 VRB04KT 
     PROB40 
     TEMPO 1218/1224 4000 RA BKN025
       
GCLP 120200Z 36013KT 9999 FEW025 SCT030 19/13 Q1024 NOSIG
TAF GCLP 120200Z 1203/1303 36016KT 9999 SCT035 TX23/1214Z TN17/1206Z
       
LEGR 120200Z AUTO 00000KT 5000 BR NSC 04/03 Q1023
TAF LEGR 120200Z 1203/1303 VRB02KT CAVOK TX19/1215Z TN01/1207Z 
     PROB40 
     TEMPO 1203/1210 2000 BR BKN010
       
GCHI 120200Z AUTO 05014KT 9999 FEW023/// 20/16 Q1025
TAF GCHI 120200Z 1203/1303 03013KT 9999 SCT020 TX23/1213Z TN19/1206Z
       
LEIB 120200Z AUTO 24010KT 210V270 9999 SCT011/// BKN014/// BKN018/// 15/13 Q1019
TAF LEIB 120200Z 1203/1303 32005KT 9999 SCT020 TX18/1212Z TN09/1206Z 
     TEMPO 1203/1209 BKN012 
     BECMG 1212/1214 12005KT 
     BECMG 1218/1220 22007KT 
     BECMG 1300/1303 27015KT
       
LEJR 120200Z AUTO 04001KT 4000 BR OVC050 13/13 Q1023
TAF LEJR 112300Z 1200/1224 17004KT 9999 FEW015 BKN040 TX18/1214Z TN09/1206Z 
     TEMPO 1200/1210 4000 BR BKN010 
     PROB30 
     TEMPO 1201/1209 0200 FG VV001
       
GCGM 120200Z AUTO VRB02KT 9999 NCD 18/14 Q1025 RMK R09/VRB01KT ARP/28003KT 250V330
TAF GCGM 120200Z 1203/1303 VRB05KT 9999 FEW030 TX22/1214Z TN17/1206Z
       
GCLA 120200Z AUTO 33008KT 9999 FEW041 19/14 Q1026
TAF GCLA 120200Z 1203/1303 32007KT 9999 BKN035 TX22/1214Z TN18/1206Z 
     BECMG 1209/1211 03010KT 
     BECMG 1218/1220 32007KT
       
GCRR 120200Z AUTO 01007KT 9999 OVC037/// 20/14 Q1024
TAF GCRR 120200Z 1203/1303 36010KT 9999 BKN035 TX23/1214Z TN16/1206Z
       
LELN 120200Z AUTO 36002KT 9000 NCD 00/00 Q1021
TAF LELN 120200Z 1203/1212 VRB04KT CAVOK
       
LEMG 120200Z 27009KT 9999 FEW020 SCT046 16/11 Q1021 NOSIG
TAF LEMG 112300Z 1200/1224 29008KT 9999 FEW020 TX19/1215Z TN12/1205Z
       
GEML 120200Z AUTO 25004KT 200V280 9999 NCD 16/09 Q1022
TAF GEML 120200Z 1203/1303 26008KT 9999 FEW020 TX19/1214Z TN11/1206Z
       
LEMH 120200Z AUTO 31002KT 9999 SCT039/// 11/10 Q1019
TAF LEMH 120200Z 1203/1303 32004KT 9999 SCT025 TX17/1212Z TN08/1206Z 
     PROB30 
     TEMPO 1203/1206 3000 BR 
     PROB30 
     TEMPO 1203/1212 BKN014 
     BECMG 1212/1214 08005KT 
     BECMG 1301/1303 22010KT
       
LEMO 120200Z 00000KT 7000 OVC049 13/11 Q1023 NOSIG
TAF LEMO 120200Z 1203/1212 VRB02KT 9999 BKN040 
     TEMPO 1203/1210 4000 BR BKN010 
     PROB30 
     TEMPO 1203/1209 0500 FG VV001
       
LEPP 120200Z AUTO 01004KT 9999 OVC028/// 07/05 Q1022
TAF LEPP 120200Z 1203/1303 VRB04KT 9999 SCT025 BKN040 TX10/1214Z TN04/1206Z 
     PROB40 
     TEMPO 1203/1210 3000 BR BKN010 
     TEMPO 1209/1215 34010KT
       
LERS 120200Z AUTO 36007KT 9999 NCD 07/04 Q1019
TAF LERS 120200Z 1203/1303 VRB04KT 9999 FEW025 TX16/1213Z TN04/1206Z
       
LERT 120200Z 00000KT 9999 FEW015 OVC050 16/15 Q1023 NOSIG
TAF LERT 120200Z 1203/1212 VRB02KT 9999 FEW010 BKN040 
     PROB40 
     TEMPO 1203/1209 3000 BR BKN014
       
LESA 120200Z AUTO 18002KT 7000 NCD M01/M02 Q1023
TAF LESA 112300Z 1200/1224 VRB04KT CAVOK TX11/1214Z TNM01/1205Z 
     PROB40 
     TEMPO 1202/1212 3000 BR OVC006 
     PROB30 
     TEMPO 1206/1210 0200 FG OVC002 
     BECMG 1220/1222 22015G25KT RA BKN014
       
LESO 120200Z AUTO 23005KT 210V280 4100 -RA BR FEW017/// OVC022/// 12/10 Q1022
TAF LESO 112300Z 1200/1224 26009KT 9999 SCT025 BKN045 TX15/1214Z TN09/1206Z 
     PROB40 
     TEMPO 1203/1210 3000 RADZ BKN010 
     BECMG 1218/1221 18010KT
       
LEXJ 120200Z AUTO 22007KT 9000 3600W -RA SCT023/// BKN028/// BKN046/// 12/10 Q1023
TAF LEXJ 120200Z 1203/1303 27009KT 9999 SCT018 SCT030 TX14/1214Z TN11/1206Z 
     PROB40 
     TEMPO 1203/1207 3000 RADZ BKN010 
     TEMPO 1215/1218 09010KT 
     BECMG 1218/1221 18010KT 
     TEMPO 1221/1303 20015G30KT
       
LEST 120200Z 00000KT 0400 0200E R17/0900U R35/0550U FG SCT001 BKN035 08/08 Q1023 NOSIG
TAF LEST 112300Z 1200/1224 VRB04KT 6000 SCT005 BKN016 TX12/1214Z TN04/1206Z 
     TEMPO 1200/1212 3000 BR BKN010 
     PROB40 
     TEMPO 1200/1210 0800 BCFG BKN002 
     PROB40 
     TEMPO 1200/1208 0350 FG VV001 
     BECMG 1211/1214 21010KT 
     TEMPO 1218/1224 23017G32KT 3000 RA BKN010
       
LEZL 120200Z AUTO 32002KT 6000 NSC 13/12 Q1023
TAF LEZL 120200Z 1203/1303 VRB02KT 9999 SCT020 BKN045 TX18/1214Z TN09/1206Z 
     PROB40 
     TEMPO 1203/1209 3000 BR BKN010
       
LESB 120200Z AUTO 03003KT 010V070 9999 SCT022/// 09/08 Q1020
TAF LEBZ 112300Z 1200/1224 VRB02KT 3000 BR SCT020 TX14/1215Z TN05/1206Z 
     BECMG 1201/1203 0200 FG VV001 
     BECMG 1210/1212 3000 BR BKN010 
     BECMG 1212/1214 8000 NSW SCT012
       
GCXO 120200Z AUTO 33010KT 300V010 9999 BKN015/// 14/11 Q1026
TAF GCXO 120200Z 1203/1303 32011KT 9999 BKN015 TX18/1214Z TN13/1206Z 
     PROB40 
     TEMPO 1203/1209 4000 BCFG BKN005
       
GCTS 120200Z 03009KT 350V050 9999 FEW040 19/12 Q1024 NOSIG
TAF GCTS 120200Z 1203/1303 03011KT 9999 FEW040 TX24/1214Z TN16/1206Z 
     BECMG 1209/1211 09018KT 
     BECMG 1218/1221 03011KT
       
LETO 120200Z 03005KT 9000 NSC 02/01 Q1023 NOSIG
TAF LETO 112300Z 1200/1224 VRB04KT CAVOK TX10/1215Z TN01/1205Z 
     PROB40 
     TEMPO 1203/1212 3000 BR OVC009 
     PROB30 
     TEMPO 1206/1210 0500 FG BKN004 
     PROB30 
     TEMPO 1218/1224 3000 DZ BR BKN009
       
LEVC 120200Z 30003KT 280V340 CAVOK 06/06 Q1019 NOSIG
TAF LEVC 112300Z 1200/1224 27005KT 9999 FEW020 TX20/1212Z TN05/1206Z
       
TAF LEVD 112300Z 1200/1224 VRB04KT CAVOK TX08/1214Z TNM01/1205Z 
     PROB40 
     TEMPO 1202/1212 3000 BR OVC008 
     PROB30 
     TEMPO 1206/1210 0300 FG OVC003 
     BECMG 1220/1222 22010KT RA BKN014
       
LEVX 120200Z VRB02KT 0600 R19/0650N R01/0550N BCFG VV001 11/11 Q1023 NOSIG
TAF LEVX 112300Z 1200/1224 VRB04KT 6000 SCT005 BKN016 TX13/1214Z TN06/1206Z 
     TEMPO 1200/1210 1500 BCFG BKN010 
     TEMPO 1200/1210 0600 BCFG BKN005 
     PROB40 
     TEMPO 1200/1210 0150 FG VV001 
     BECMG 1209/1212 19010KT 
     TEMPO 1218/1224 23017G32KT 3000 RA BKN010
       
LEVT 120200Z 00000KT 9999 SCT040 02/01 Q1022
TAF LEVT 112300Z 1200/1224 VRB04KT 9999 SCT014 BKN030 TX10/1214Z TN02/1206Z 
     PROB40 
     TEMPO 1200/1208 3000 BR BKN010 
     PROB30 
     TEMPO 1202/1208 0800 BCFG BKN002 
     BECMG 1218/1221 22010KT 
     TEMPO 1221/1224 22015G25KT
       
LEZG 120200Z 27015KT CAVOK 08/03 Q1020
TAF LEZG 112300Z 1200/1224 27007KT 9999 FEW040 TX14/1214Z TN02/1206Z 
     TEMPO 1202/1212 28015KT 
     BECMG 1221/1223 23015KT